Flag for Portugal

Past Weather in 37°04'00"N, 8°05'59"W, Portugal — Yesterday and Last 2 Weeks

Currently: 68 °F. Sunny. (Weather station: Faro / Aeroporto, Portugal). See more current weather

Past Weather in 37°04'00"N, 8°05'59"W — Graph

°F

37°04'00"N, 8°05'59"W Temperature Yesterday

Maximum temperature yesterday: 72 °F (at 2:30 pm)
Minimum temperature yesterday: 57 °F (at 10:00 pm)
Average temperature yesterday: 64 °F

High & Low Weather Summary for the Past Weeks

 TemperatureHumidityPressure
High72 °F (Feb 19, 2:30 pm)100% (Feb 7, 1:00 am)30.54 "Hg (Feb 7, 1:00 am)
Low50 °F (Feb 19, 7:30 am)40% (Feb 20, 4:00 pm)29.36 "Hg (Feb 9, 1:30 pm)
Average62 °F81%30.13 "Hg
* Reported Feb 6 2:00 pm — Feb 21 2:00 pm, 37°04'00"N, 8°05'59"W. Weather by CustomWeather, © 2024

Note: Actual official high and low records may vary slightly from our data, if they occured in-between our weather recording intervals... More about our weather records

37°04'00"N, 8°05'59"W Weather History for the Previous 24 Hours

Scroll right to see more
 ConditionsComfort  
Time TempWeatherWind HumidityBarometerVisibility
2:00 pm
Wed, Feb 21
68 °FSunny.7 mph49%30.30 "Hg10 mi
1:30 pm68 °FSunny.7 mph56%30.33 "Hg10 mi
1:00 pm68 °FSunny.7 mph56%30.33 "Hg10 mi
12:30 pm68 °FPassing clouds.7 mph56%30.36 "HgN/A
12:00 pm68 °FPassing clouds.7 mph56%30.36 "HgN/A
11:30 am68 °FPassing clouds.5 mph56%30.36 "HgN/A
11:00 am68 °FSunny.2 mph53%30.36 "Hg10 mi
10:30 am66 °FSunny.5 mph64%30.36 "Hg10 mi
10:00 am66 °FPassing clouds.3 mph60%30.33 "HgN/A
9:30 am64 °FSunny.2 mph56%30.33 "Hg10 mi
9:00 am63 °FSunny.No wind64%30.36 "Hg10 mi
8:30 am55 °FSunny.2 mph77%30.33 "Hg10 mi
8:00 am55 °FSunny.5 mph72%30.33 "Hg10 mi
7:30 am55 °FSunny.5 mph72%30.30 "Hg10 mi
7:00 am52 °FClear.2 mph88%30.30 "Hg10 mi
6:30 am57 °FClear.2 mph82%30.30 "Hg10 mi
6:00 am57 °FClear.6 mph77%30.30 "Hg10 mi
5:30 am59 °FClear.2 mph63%30.30 "Hg10 mi
5:00 am57 °FClear.2 mph67%30.30 "Hg10 mi
4:30 am54 °FPassing clouds.6 mph82%30.30 "HgN/A
4:00 am54 °FClear.6 mph82%30.30 "Hg10 mi
3:30 am54 °FClear.3 mph82%30.30 "Hg10 mi
3:00 am59 °FClear.3 mph72%30.30 "Hg10 mi
2:30 am55 °FClear.5 mph88%30.30 "Hg10 mi
2:00 am54 °FClear.3 mph82%30.30 "Hg10 mi
1:30 am54 °FClear.2 mph82%30.30 "Hg10 mi
1:00 am57 °FClear.3 mph77%30.30 "Hg10 mi
11:30 pm
Tue, Feb 20
57 °FClear.3 mph72%30.33 "Hg10 mi
11:00 pm57 °FClear.3 mph72%30.33 "Hg10 mi
10:30 pm57 °FClear.No wind72%30.33 "Hg10 mi
10:00 pm57 °FClear.2 mph72%30.33 "Hg10 mi
9:30 pm59 °FClear.5 mph72%30.33 "Hg10 mi
9:00 pm59 °FClear.3 mph68%30.33 "Hg10 mi
8:30 pm61 °FPassing clouds.5 mph63%30.36 "HgN/A
8:00 pm63 °FClear.7 mph64%30.36 "Hg10 mi
7:30 pm63 °FClear.8 mph64%30.36 "Hg10 mi
7:00 pm64 °FClear.7 mph64%30.33 "Hg10 mi
6:30 pm64 °FClear.9 mph68%30.33 "Hg10 mi
6:00 pm64 °FSunny.6 mph73%30.33 "Hg10 mi
5:30 pm68 °FPassing clouds.3 mph64%30.33 "HgN/A
5:00 pm68 °FSunny.8 mph49%30.33 "Hg10 mi
4:30 pm70 °FSunny.10 mph46%30.33 "Hg10 mi
4:00 pm70 °FPassing clouds.9 mph40%30.30 "HgN/A
3:30 pm72 °FSunny.13 mph41%30.30 "Hg10 mi
3:00 pm72 °FSunny.13 mph44%30.33 "Hg10 mi
Weather by CustomWeather, © 2024

See weather overview